createdAt,value
2023-03-08T00:00:25.102Z,18.2
2023-03-08T00:05:25.106Z,20
2023-03-08T00:10:25.096Z,24.1
2023-03-08T00:15:25.104Z,22.1
2023-03-08T00:20:25.130Z,22.9
2023-03-08T00:25:25.113Z,23.4
2023-03-08T00:30:25.133Z,29.1
2023-03-08T00:35:25.147Z,24.5
2023-03-08T00:40:25.099Z,19.4
2023-03-08T00:45:25.110Z,22.1
2023-03-08T00:50:25.107Z,19.4
2023-03-08T00:55:25.117Z,20.9
2023-03-08T01:00:25.113Z,19.7
2023-03-08T01:05:25.113Z,22.4
2023-03-08T01:10:25.101Z,22.7
2023-03-08T01:15:25.110Z,26.9
2023-03-08T01:20:25.110Z,17.1
2023-03-08T01:25:25.104Z,20.6
2023-03-08T01:30:25.113Z,23.2
2023-03-08T01:35:25.114Z,18
2023-03-08T01:40:25.103Z,20.7
2023-03-08T01:45:25.101Z,24.6
2023-03-08T01:50:25.108Z,18.3
2023-03-08T01:55:25.112Z,22.6
2023-03-08T02:00:25.104Z,19.5
2023-03-08T02:05:25.133Z,14.7
2023-03-08T02:10:25.116Z,24.5
2023-03-08T02:15:25.113Z,16.4
2023-03-08T02:20:25.111Z,17.4
2023-03-08T02:25:25.115Z,18.9
2023-03-08T02:30:25.108Z,13
2023-03-08T02:35:25.120Z,17.1
2023-03-08T02:40:25.124Z,19.2
2023-03-08T02:45:25.116Z,19.2
2023-03-08T02:50:25.100Z,20.5
2023-03-08T02:55:25.106Z,21.8
2023-03-08T03:00:25.104Z,21.5
2023-03-08T03:05:25.117Z,22.3
2023-03-08T03:10:25.100Z,31.5
2023-03-08T03:15:25.113Z,21.4
2023-03-08T03:20:25.099Z,17.1
2023-03-08T03:25:25.107Z,21.5
2023-03-08T03:30:25.102Z,22.2
2023-03-08T03:35:25.105Z,20.4
2023-03-08T03:40:25.100Z,22.2
2023-03-08T03:45:25.111Z,17.7
2023-03-08T03:50:25.108Z,19.8
2023-03-08T03:55:25.123Z,20.8
2023-03-08T04:00:25.117Z,20.8
2023-03-08T04:05:25.125Z,19.2
2023-03-08T04:10:25.104Z,18.6
2023-03-08T04:15:25.113Z,23.6
2023-03-08T04:20:25.135Z,22.9
2023-03-08T04:25:25.111Z,25.1
2023-03-08T04:30:25.118Z,23.2
2023-03-08T04:35:25.110Z,23.8
2023-03-08T04:40:25.111Z,21.5
2023-03-08T04:45:25.127Z,21.1
2023-03-08T04:50:25.116Z,23
2023-03-08T04:55:25.131Z,27.4
2023-03-08T05:00:25.108Z,19.4
2023-03-08T05:05:25.109Z,22
2023-03-08T05:10:25.112Z,22.6
2023-03-08T05:15:25.108Z,20.4
2023-03-08T05:20:25.127Z,14.2
2023-03-08T05:25:25.123Z,19.6
2023-03-08T05:30:25.112Z,19.7
2023-03-08T05:35:25.118Z,18.8
2023-03-08T05:40:25.108Z,19.7
2023-03-08T05:45:25.140Z,18.2
2023-03-08T05:50:25.118Z,17
2023-03-08T05:55:25.109Z,18.9
2023-03-08T06:00:25.099Z,18.8
2023-03-08T06:05:25.125Z,16.2
2023-03-08T06:10:25.100Z,23.5
2023-03-08T06:15:25.104Z,17.5
2023-03-08T06:20:25.096Z,18.4
2023-03-08T06:25:25.101Z,19.4
2023-03-08T06:30:25.156Z,26.5
2023-03-08T06:35:25.164Z,43.3
2023-03-08T06:40:25.119Z,30.5
2023-03-08T06:45:25.117Z,35.7
2023-03-08T06:50:25.111Z,30.6
2023-03-08T06:55:25.117Z,18.1
2023-03-08T07:00:25.133Z,19
2023-03-08T07:05:25.113Z,23.9
2023-03-08T07:10:25.107Z,20.2
2023-03-08T07:15:25.111Z,20.6
2023-03-08T07:20:25.117Z,23.4
2023-03-08T07:25:25.130Z,18.1
2023-03-08T07:30:25.096Z,18.1
2023-03-08T07:35:25.114Z,14.4
2023-03-08T07:40:25.109Z,14.9
2023-03-08T07:45:25.103Z,15.4
2023-03-08T07:50:25.103Z,17.8
2023-03-08T07:55:25.111Z,18.1
2023-03-08T08:00:25.129Z,16.1
2023-03-08T08:05:25.146Z,14.6
2023-03-08T08:10:25.107Z,12.3
2023-03-08T08:15:25.094Z,12.3
2023-03-08T08:20:25.220Z,15.3
2023-03-08T08:25:25.106Z,11.1
2023-03-08T08:30:25.148Z,13.6
2023-03-08T08:35:34.067Z,14.5
2023-03-08T08:40:25.829Z,14.2
2023-03-08T08:45:25.134Z,12
2023-03-08T08:50:25.122Z,11.5
2023-03-08T08:55:25.114Z,8.8
2023-03-08T09:00:25.160Z,9.4
2023-03-08T09:05:25.210Z,8.1
2023-03-08T09:10:25.130Z,7.1
2023-03-08T09:15:25.115Z,7.1
2023-03-08T09:20:25.196Z,5.3
2023-03-08T09:25:25.125Z,4.4
2023-03-08T09:30:25.116Z,6.8
2023-03-08T09:35:25.123Z,7.7
2023-03-08T09:40:25.120Z,4
2023-03-08T09:45:25.127Z,5.7
2023-03-08T09:50:25.109Z,0
2023-03-08T09:55:25.134Z,0
2023-03-08T10:00:25.101Z,0
2023-03-08T10:05:25.121Z,0
2023-03-08T10:10:25.143Z,0
2023-03-08T10:15:25.107Z,0
2023-03-08T10:20:25.092Z,0
2023-03-08T10:25:25.102Z,4
2023-03-08T10:30:25.099Z,0
2023-03-08T10:35:25.106Z,0
2023-03-08T10:40:25.118Z,8.4
2023-03-08T10:45:25.118Z,8.4
2023-03-08T10:50:25.112Z,8.2
2023-03-08T10:55:25.117Z,8.2
2023-03-08T11:00:25.144Z,7.6
2023-03-08T11:05:25.124Z,6.8
2023-03-08T11:10:25.195Z,7.5
2023-03-08T11:15:25.125Z,7
2023-03-08T11:20:25.111Z,7
2023-03-08T11:25:25.127Z,5.6
2023-03-08T11:30:25.113Z,6.9
2023-03-08T11:35:25.127Z,4.3
2023-03-08T11:40:25.137Z,5.7
2023-03-08T11:45:25.111Z,4.7
2023-03-08T11:50:25.107Z,6.5
2023-03-08T11:55:25.144Z,5.8
2023-03-08T12:00:25.115Z,4
2023-03-08T12:05:25.123Z,4.7
2023-03-08T12:10:25.105Z,0
2023-03-08T12:15:25.144Z,0
2023-03-08T12:20:25.107Z,0
2023-03-08T12:25:25.109Z,0
2023-03-08T12:30:25.113Z,0
2023-03-08T12:35:25.128Z,0
2023-03-08T12:40:25.112Z,0
2023-03-08T12:45:25.122Z,4.4
2023-03-08T12:50:25.156Z,4.6
2023-03-08T12:55:25.116Z,4.8
2023-03-08T13:00:25.107Z,4.1
2023-03-08T13:05:25.120Z,4.3
2023-03-08T13:10:25.112Z,0
2023-03-08T13:15:25.128Z,0
2023-03-08T13:20:25.175Z,0
2023-03-08T13:25:25.157Z,6.3
2023-03-08T13:30:25.167Z,6.5
2023-03-08T13:35:25.114Z,0
2023-03-08T13:40:25.128Z,0
2023-03-08T13:45:25.111Z,5.5
2023-03-08T13:50:25.116Z,4.9
2023-03-08T13:55:25.206Z,7.9
2023-03-08T14:00:25.155Z,7.1
2023-03-08T14:05:25.108Z,5.6
2023-03-08T14:10:25.119Z,0
2023-03-08T14:15:25.172Z,4.2
2023-03-08T14:20:25.163Z,0
2023-03-08T14:25:25.175Z,4.2
2023-03-08T14:30:25.107Z,6.3
2023-03-08T14:35:25.109Z,6.3
2023-03-08T14:40:26.551Z,6.2
2023-03-08T14:45:25.107Z,5.7
2023-03-08T14:50:25.104Z,7.7
2023-03-08T14:55:25.113Z,0
2023-03-08T15:00:25.107Z,6.6
2023-03-08T15:05:28.995Z,0
2023-03-08T15:10:25.118Z,4.1
2023-03-08T15:15:25.120Z,5.7
2023-03-08T15:20:25.200Z,4.4
2023-03-08T15:25:25.123Z,6.6
2023-03-08T15:30:25.130Z,4.7
2023-03-08T15:35:25.123Z,5
2023-03-08T15:40:25.113Z,0
2023-03-08T15:45:25.113Z,0
2023-03-08T15:50:25.117Z,0
2023-03-08T15:55:25.103Z,0
2023-03-08T16:00:25.115Z,8.3
2023-03-08T16:05:25.139Z,6.7
2023-03-08T16:10:25.105Z,0
2023-03-08T16:15:25.126Z,5.1
2023-03-08T16:20:25.101Z,6.3
2023-03-08T16:25:25.121Z,0
2023-03-08T16:30:25.116Z,7.4
2023-03-08T16:35:25.112Z,7.4
2023-03-08T16:40:25.119Z,11.2
2023-03-08T16:45:25.162Z,16.7
2023-03-08T16:50:25.184Z,14
2023-03-08T16:55:25.119Z,12.8
2023-03-08T17:00:25.106Z,14.2
2023-03-08T17:05:25.112Z,13.4
2023-03-08T17:10:25.096Z,16.3
2023-03-08T17:15:25.099Z,12.7
2023-03-08T17:20:25.103Z,12.5
2023-03-08T17:25:25.109Z,12.1
2023-03-08T17:30:25.131Z,13.8
2023-03-08T17:35:25.156Z,18
2023-03-08T17:40:25.109Z,18.9
2023-03-08T17:45:25.110Z,19
2023-03-08T17:50:25.103Z,20.4
2023-03-08T17:55:25.107Z,19.9
2023-03-08T18:00:25.112Z,19.4
2023-03-08T18:05:25.125Z,17.2
2023-03-08T18:10:25.106Z,18.7
2023-03-08T18:15:25.127Z,22.3
2023-03-08T18:20:25.115Z,18.8
2023-03-08T18:25:25.106Z,19.3
2023-03-08T18:30:25.152Z,20.2
2023-03-08T18:35:25.134Z,20.6
2023-03-08T18:40:25.109Z,21
2023-03-08T18:45:25.118Z,18.9
2023-03-08T18:50:25.126Z,29.2
2023-03-08T18:55:25.110Z,30.6
2023-03-08T19:00:25.126Z,26.9
2023-03-08T19:05:25.105Z,24.9
2023-03-08T19:10:25.113Z,21.4
2023-03-08T19:15:25.126Z,27.2
2023-03-08T19:20:25.113Z,20
2023-03-08T19:25:25.111Z,23.9
2023-03-08T19:30:25.110Z,22.6
2023-03-08T19:35:25.113Z,18.1
2023-03-08T19:40:25.105Z,14.2
2023-03-08T19:45:25.202Z,12.9
2023-03-08T19:50:25.112Z,14.9
2023-03-08T19:55:25.109Z,15.8
2023-03-08T20:00:25.105Z,18.2
2023-03-08T20:05:25.162Z,16.3
2023-03-08T20:10:25.115Z,12.7
2023-03-08T20:15:25.106Z,17.7
2023-03-08T20:20:25.102Z,14.2
2023-03-08T20:25:25.116Z,18.5
2023-03-08T20:30:25.150Z,17.5
2023-03-08T20:35:25.149Z,16
2023-03-08T20:40:25.103Z,15.5
2023-03-08T20:45:25.112Z,17.5
2023-03-08T20:50:25.111Z,16.6
2023-03-08T20:55:25.104Z,16.5
2023-03-08T21:00:25.112Z,18.1
2023-03-08T21:05:25.118Z,16
2023-03-08T21:10:25.140Z,16
2023-03-08T21:15:25.112Z,15.5
2023-03-08T21:20:25.144Z,17.8
2023-03-08T21:25:25.412Z,18
2023-03-08T21:30:25.103Z,21
2023-03-08T21:35:25.122Z,17.2
2023-03-08T21:40:25.097Z,16.5
2023-03-08T21:45:25.099Z,16.8
2023-03-08T21:50:25.110Z,18.3
2023-03-08T21:55:25.106Z,18.7
2023-03-08T22:00:25.108Z,12.8
2023-03-08T22:05:25.113Z,11.9
2023-03-08T22:10:25.166Z,13.6
2023-03-08T22:15:25.146Z,11.8
2023-03-08T22:20:25.175Z,9.8
2023-03-08T22:25:25.134Z,10.2
2023-03-08T22:30:25.126Z,13.9
2023-03-08T22:35:25.114Z,14.8
2023-03-08T22:40:25.100Z,16
2023-03-08T22:45:25.116Z,15.6
2023-03-08T22:50:25.108Z,18.3
2023-03-08T22:55:25.134Z,13.4
2023-03-08T23:00:25.128Z,12.7
2023-03-08T23:05:25.104Z,12.8
2023-03-08T23:10:25.100Z,16.1
2023-03-08T23:15:25.104Z,18.7
2023-03-08T23:20:25.141Z,20.2
2023-03-08T23:25:25.119Z,17.2
2023-03-08T23:30:25.104Z,30.6
2023-03-08T23:35:25.109Z,26.4
2023-03-08T23:40:25.104Z,21.1
2023-03-08T23:45:25.099Z,19.4
2023-03-08T23:50:25.108Z,21.3
2023-03-08T23:55:25.117Z,18.9
